Time;durP1;ratioP1;P1;durP2;ratioP2;P2;SDS_P1;SDS_P2;PMS_P1;PMS_P2;Temp;Humidity;BMP_temperature;BMP_pressure;BME280_temperature;BME280_humidity;BME280_pressure;Samples;Min_cycle;Max_cycle;Signal;HPM_P1;HPM_P2
2023/01/26 00:01:27;;;;;;;12.63;4.13;;;1.00;99.90;;;;;;4846282;29;20037;-86
2023/01/26 00:03:56;;;;;;;12.83;5.47;;;1.40;99.90;;;;;;4843872;29;20026;-87
2023/01/26 00:06:25;;;;;;;22.70;5.70;;;2.30;99.90;;;;;;4846701;29;20079;-86
2023/01/26 00:08:56;;;;;;;18.27;4.43;;;2.40;99.90;;;;;;4848282;29;20042;-86
2023/01/26 00:11:27;;;;;;;15.47;5.43;;;1.40;99.90;;;;;;4828957;29;20052;-87
2023/01/26 00:13:57;;;;;;;16.63;4.53;;;1.40;99.90;;;;;;4837693;29;20065;-85
2023/01/26 00:16:23;;;;;;;14.20;4.60;;;1.80;99.90;;;;;;4844253;29;20018;-86
2023/01/26 00:18:57;;;;;;;13.13;4.13;;;0.80;99.90;;;;;;4846839;29;20019;-85
2023/01/26 00:21:23;;;;;;;18.33;5.63;;;0.80;99.90;;;;;;4844248;29;20396;-86
2023/01/26 00:23:50;;;;;;;14.77;5.30;;;0.70;99.90;;;;;;4846244;29;20026;-85
2023/01/26 00:26:19;;;;;;;14.73;5.23;;;1.00;99.90;;;;;;4846942;29;20030;-85
2023/01/26 00:28:45;;;;;;;20.60;5.57;;;0.30;99.90;;;;;;4847290;29;20026;-87
2023/01/26 00:31:16;;;;;;;25.27;5.93;;;-0.20;99.90;;;;;;4837190;29;20064;-87
2023/01/26 00:33:54;;;;;;;17.57;5.23;;;0.80;99.90;;;;;;4837445;29;20046;-86
2023/01/26 00:36:23;;;;;;;23.30;6.27;;;3.10;99.90;;;;;;4844312;29;20034;-86
2023/01/26 00:39:09;;;;;;;14.57;4.60;;;1.50;99.90;;;;;;4847077;29;20011;-85
2023/01/26 00:44:18;;;;;;;14.87;4.83;;;0.80;99.90;;;;;;4840423;29;20086;-86
2023/01/26 00:46:44;;;;;;;15.77;5.47;;;0.80;99.90;;;;;;4847361;29;20014;-87
2023/01/26 00:49:09;;;;;;;17.63;5.47;;;0.80;99.90;;;;;;4846492;29;20038;-86
2023/01/26 00:51:35;;;;;;;23.27;6.20;;;1.70;99.90;;;;;;4843571;29;20031;-87
2023/01/26 00:54:01;;;;;;;16.37;5.20;;;1.60;99.90;;;;;;4840406;29;20038;-87
2023/01/26 00:56:26;;;;;;;17.90;4.97;;;0.60;99.90;;;;;;4844914;29;20026;-87
2023/01/26 00:58:55;;;;;;;24.20;5.90;;;1.40;99.90;;;;;;4842539;29;20022;-88
2023/01/26 01:01:21;;;;;;;18.47;6.17;;;0.40;99.90;;;;;;4835089;29;20898;-86
2023/01/26 01:03:46;;;;;;;15.97;5.60;;;1.90;99.90;;;;;;4841292;29;20031;-86
2023/01/26 01:06:12;;;;;;;17.67;5.23;;;0.60;99.90;;;;;;4840801;29;20037;-86
2023/01/26 01:08:38;;;;;;;17.47;5.13;;;0.30;99.90;;;;;;4843189;29;20030;-86
2023/01/26 01:11:05;;;;;;;21.47;6.07;;;0.80;99.90;;;;;;4842037;29;20054;-87
2023/01/26 01:13:38;;;;;;;19.33;6.07;;;0.80;99.90;;;;;;4842832;29;20033;-86
2023/01/26 01:16:10;;;;;;;16.70;5.70;;;0.80;99.90;;;;;;4839525;29;20022;-86
2023/01/26 01:18:35;;;;;;;13.45;4.60;;;1.80;99.90;;;;;;4842107;29;20015;-86
2023/01/26 01:21:12;;;;;;;17.30;4.90;;;1.80;99.90;;;;;;4842441;29;20031;-86
2023/01/26 01:23:45;;;;;;;13.93;4.87;;;0.80;99.90;;;;;;4842544;29;20038;-85
2023/01/26 01:26:11;;;;;;;16.17;4.77;;;0.70;99.90;;;;;;4843002;29;20054;-86
2023/01/26 01:28:41;;;;;;;15.80;5.07;;;1.60;99.90;;;;;;4843325;29;20034;-86
2023/01/26 01:31:16;;;;;;;15.17;5.23;;;1.10;99.90;;;;;;4833174;29;20031;-87
2023/01/26 01:33:42;;;;;;;16.17;5.73;;;0.80;99.90;;;;;;4851982;29;20045;-87
2023/01/26 01:36:11;;;;;;;16.97;4.27;;;1.60;99.90;;;;;;4827607;29;20046;-88
2023/01/26 01:38:36;;;;;;;17.33;4.60;;;1.90;99.90;;;;;;4844800;29;20033;-87
2023/01/26 01:41:06;;;;;;;11.77;4.33;;;0.70;99.90;;;;;;4844473;29;20058;-86
2023/01/26 01:43:32;;;;;;;16.30;4.80;;;0.60;99.90;;;;;;4840055;29;20034;-88
2023/01/26 01:46:00;;;;;;;8.67;2.83;;;1.50;99.90;;;;;;4842021;29;20037;-87
2023/01/26 01:48:37;;;;;;;12.97;3.77;;;1.70;99.90;;;;;;4842124;29;20055;-87
2023/01/26 01:51:07;;;;;;;11.43;4.00;;;0.60;99.90;;;;;;4839729;29;20026;-86
2023/01/26 01:53:40;;;;;;;12.47;3.97;;;0.40;99.90;;;;;;4840224;29;20030;-86
2023/01/26 01:56:13;;;;;;;10.80;3.67;;;1.30;99.90;;;;;;4834632;29;20041;-86
2023/01/26 01:58:42;;;;;;;9.93;3.37;;;2.30;99.90;;;;;;4824095;29;20014;-86
2023/01/26 02:01:09;;;;;;;9.30;3.27;;;0.80;99.90;;;;;;4821412;29;20046;-86
2023/01/26 02:03:35;;;;;;;8.97;3.87;;;1.00;99.90;;;;;;4822436;29;20494;-86
2023/01/26 02:06:11;;;;;;;13.43;4.47;;;0.80;99.90;;;;;;4823681;29;20055;-87
2023/01/26 02:08:36;;;;;;;12.00;4.13;;;0.90;99.90;;;;;;4819799;29;20460;-87
2023/01/26 02:11:12;;;;;;;13.50;4.33;;;0.90;99.90;;;;;;4816631;29;20037;-87
2023/01/26 02:13:39;;;;;;;10.03;3.43;;;0.80;99.90;;;;;;4816242;29;20026;-87
2023/01/26 02:16:05;;;;;;;12.40;4.13;;;0.50;99.90;;;;;;4821771;29;20452;-87
2023/01/26 02:18:31;;;;;;;10.03;3.40;;;0.80;99.90;;;;;;4817442;29;20076;-86
2023/01/26 02:21:03;;;;;;;10.97;3.30;;;0.80;99.90;;;;;;4821976;29;20053;-87
2023/01/26 02:23:51;;;;;;;10.25;3.40;;;0.80;99.90;;;;;;4824362;29;20026;-86
2023/01/26 02:26:26;;;;;;;12.10;4.20;;;0.80;99.90;;;;;;4821261;29;20059;-86
2023/01/26 02:28:52;;;;;;;13.60;3.83;;;0.80;99.90;;;;;;4819385;29;20049;-87
2023/01/26 02:31:18;;;;;;;13.83;4.57;;;0.80;99.90;;;;;;4813228;29;20782;-87
2023/01/26 02:33:44;;;;;;;11.60;3.97;;;0.80;99.90;;;;;;4818184;29;20022;-87
2023/01/26 02:36:20;;;;;;;12.53;3.70;;;0.80;99.90;;;;;;4820371;29;20482;-87
2023/01/26 02:38:58;;;;;;;13.50;4.13;;;0.80;99.90;;;;;;4823277;29;20026;-87
2023/01/26 02:44:10;;;;;;;13.37;4.27;;;0.80;99.90;;;;;;4820220;29;20068;-86
2023/01/26 02:46:36;;;;;;;12.10;4.10;;;1.00;99.90;;;;;;4822009;29;20384;-87
2023/01/26 02:51:45;;;;;;;13.37;4.80;;;0.80;99.90;;;;;;4818371;29;20114;-88
2023/01/26 02:55:21;;;;;;;11.97;3.70;;;0.70;99.90;;;;;;4822170;29;20072;-87
2023/01/26 02:56:57;;;;;;;11.67;4.17;;;0.70;99.90;;;;;;4820397;29;20053;-87
2023/01/26 02:59:25;;;;;;;9.63;3.87;;;1.50;99.90;;;;;;4820624;29;20130;-86
2023/01/26 03:01:54;;;;;;;10.80;3.93;;;1.60;99.90;;;;;;4821362;29;20031;-86
2023/01/26 03:04:22;;;;;;;12.83;3.50;;;0.60;99.90;;;;;;4820625;29;20484;-86
2023/01/26 03:06:48;;;;;;;11.00;4.37;;;0.60;99.90;;;;;;4817195;29;20054;-86
2023/01/26 03:09:19;;;;;;;15.17;4.50;;;1.70;99.90;;;;;;4821983;29;20526;-86
2023/01/26 03:11:45;;;;;;;11.83;4.57;;;0.80;99.90;;;;;;4816124;29;20502;-86
2023/01/26 03:14:12;;;;;;;20.20;5.40;;;0.80;99.90;;;;;;4818389;29;20031;-86
2023/01/26 03:16:44;;;;;;;14.67;4.57;;;0.70;99.90;;;;;;4820671;29;20105;-86
2023/01/26 03:28:04;;;;;;;10.67;3.77;;;1.40;99.90;;;;;;4821545;29;20102;-86
2023/01/26 03:30:36;;;;;;;;;;;0.50;99.90;;;;;;4820275;29;20026;-86
2023/01/26 03:33:07;;;;;;;14.20;3.83;;;0.30;99.90;;;;;;4810383;29;19920;-86
2023/01/26 03:35:35;;;;;;;9.30;3.23;;;2.30;99.90;;;;;;4816748;29;20030;-87
2023/01/26 03:38:04;;;;;;;13.17;3.93;;;0.40;99.90;;;;;;4825142;29;20055;-86
2023/01/26 03:57:05;;;;;;;13.07;3.60;;;0.70;99.90;;;;;;4820233;29;20503;-86
2023/01/26 03:59:37;;;;;;;16.70;4.13;;;0.60;99.90;;;;;;4823648;29;20034;-86
2023/01/26 04:10:21;;;;;;;12.73;3.77;;;0.50;99.90;;;;;;4824085;29;20121;-87
2023/01/26 04:23:48;;;;;;;10.70;3.00;;;0.50;99.90;;;;;;4822712;29;20038;-86
2023/01/26 04:26:14;;;;;;;12.33;3.77;;;0.50;99.90;;;;;;4821904;29;20030;-86
2023/01/26 04:28:40;;;;;;;14.53;3.20;;;0.50;99.90;;;;;;4824527;29;20042;-86
2023/01/26 04:31:05;;;;;;;14.50;4.37;;;0.50;99.90;;;;;;4816409;29;20050;-86
2023/01/26 04:33:31;;;;;;;16.17;3.97;;;0.40;99.90;;;;;;4831962;29;20033;-87
2023/01/26 04:36:02;;;;;;;14.13;3.00;;;0.40;99.90;;;;;;4826421;29;20019;-86
2023/01/26 04:38:28;;;;;;;14.02;3.03;;;0.20;99.90;;;;;;4824227;29;20030;-86
2023/01/26 04:40:54;;;;;;;11.27;2.60;;;0.60;99.90;;;;;;4822262;29;20115;-86
2023/01/26 04:43:20;;;;;;;10.23;3.30;;;0.40;99.90;;;;;;4819736;29;20453;-87
2023/01/26 04:45:59;;;;;;;12.90;3.33;;;0.40;99.90;;;;;;4823300;29;20027;-87
2023/01/26 04:48:28;;;;;;;11.60;2.90;;;0.30;99.90;;;;;;4819433;29;20039;-86
2023/01/26 04:50:55;;;;;;;11.87;3.23;;;0.30;99.90;;;;;;4827417;29;20037;-86
2023/01/26 04:53:21;;;;;;;11.47;2.67;;;0.30;99.90;;;;;;4823209;29;20029;-86
2023/01/26 04:55:46;;;;;;;8.67;2.73;;;0.30;99.90;;;;;;4823800;29;20018;-87
2023/01/26 04:58:12;;;;;;;12.10;2.93;;;0.30;99.90;;;;;;4818361;29;20034;-87
2023/01/26 05:00:37;;;;;;;11.07;3.47;;;0.10;99.90;;;;;;4821580;29;20730;-86
2023/01/26 05:03:04;;;;;;;12.13;2.63;;;0.30;99.90;;;;;;4821355;29;20084;-86
2023/01/26 05:05:29;;;;;;;10.50;2.73;;;0.30;99.90;;;;;;4822596;29;20152;-86
2023/01/26 05:07:55;;;;;;;11.27;2.93;;;0.30;99.90;;;;;;4818414;29;20031;-87
2023/01/26 05:10:20;;;;;;;11.37;3.60;;;0.30;99.90;;;;;;4822131;29;20027;-86
2023/01/26 05:12:46;;;;;;;14.57;3.33;;;0.30;99.90;;;;;;4820985;29;20510;-87
2023/01/26 05:15:12;;;;;;;11.07;3.33;;;0.30;99.90;;;;;;4822435;29;20027;-87
2023/01/26 05:17:37;;;;;;;10.03;2.70;;;0.20;99.90;;;;;;4812957;29;20034;-86
2023/01/26 05:20:06;;;;;;;7.37;2.47;;;1.30;99.90;;;;;;4823251;29;20045;-87
2023/01/26 05:22:32;;;;;;;12.43;2.53;;;0.30;99.90;;;;;;4819925;29;20070;-86
2023/01/26 05:24:58;;;;;;;10.57;2.57;;;0.20;99.90;;;;;;4822685;29;20110;-86
2023/01/26 05:27:23;;;;;;;7.20;2.60;;;0.10;99.90;;;;;;4818518;29;20037;-87
2023/01/26 05:29:50;;;;;;;12.87;3.00;;;1.80;99.90;;;;;;4825495;29;20034;-86
2023/01/26 05:32:26;;;;;;;6.67;2.20;;;0.30;99.90;;;;;;4811951;29;20030;-87
2023/01/26 05:34:52;;;;;;;9.57;2.50;;;0.70;99.90;;;;;;4821741;29;20427;-87
2023/01/26 05:37:31;;;;;;;9.53;2.83;;;-0.10;99.90;;;;;;4826489;29;20030;-86
2023/01/26 05:39:59;;;;;;;10.00;2.60;;;-0.10;99.90;;;;;;4821020;29;20041;-87
2023/01/26 05:42:30;;;;;;;10.17;3.03;;;1.30;99.90;;;;;;4813398;29;20057;-86
2023/01/26 05:44:56;;;;;;;7.23;2.13;;;0.70;99.90;;;;;;4831600;29;20030;-87
2023/01/26 05:47:24;;;;;;;8.97;2.80;;;1.80;99.90;;;;;;4819847;29;20408;-86
2023/01/26 05:49:58;;;;;;;6.10;1.97;;;0.40;99.90;;;;;;4821131;29;20111;-86
2023/01/26 05:52:29;;;;;;;13.73;3.67;;;0.90;99.90;;;;;;4822038;29;20543;-86
2023/01/26 05:55:14;;;;;;;10.90;2.67;;;-0.20;99.90;;;;;;4821557;29;20027;-87
2023/01/26 05:57:47;;;;;;;9.70;3.20;;;0.20;99.90;;;;;;4814073;29;20030;-86
2023/01/26 06:00:19;;;;;;;9.63;2.47;;;0.50;99.90;;;;;;4821626;29;20034;-86
2023/01/26 06:02:45;;;;;;;8.10;2.57;;;0.30;99.90;;;;;;4831991;29;20495;-87
2023/01/26 06:05:27;;;;;;;;;;;;;;;;;;;;;
2023/01/26 06:11:11;;;;;;;8.70;2.43;;;0.00;99.90;;;;;;4821405;29;20037;-86
2023/01/26 06:14:17;;;;;;;9.17;2.77;;;-0.10;99.90;;;;;;4820540;29;20057;-87
2023/01/26 06:17:28;;;;;;;8.53;2.30;;;-0.40;99.90;;;;;;4817529;29;20034;-87
2023/01/26 06:20:11;;;;;;;7.57;2.73;;;1.30;99.90;;;;;;4804375;29;20100;-87
2023/01/26 06:23:36;;;;;;;8.85;2.30;;;0.90;99.90;;;;;;4819904;29;20091;-87
2023/01/26 06:26:31;;;;;;;6.03;2.77;;;1.30;99.90;;;;;;4800021;29;20477;-86
2023/01/26 06:28:59;;;;;;;6.80;2.13;;;0.20;99.90;;;;;;4803746;29;20063;-86
2023/01/26 06:31:30;;;;;;;9.87;2.97;;;1.40;99.90;;;;;;4800416;29;20038;-86
2023/01/26 06:33:58;;;;;;;8.27;2.53;;;-0.40;99.90;;;;;;4817598;29;20045;-87
2023/01/26 06:36:24;;;;;;;6.93;2.40;;;-0.20;99.90;;;;;;4820051;29;20026;-86
2023/01/26 06:38:55;;;;;;;12.17;2.13;;;0.10;99.90;;;;;;4820311;29;20050;-86
2023/01/26 06:41:45;;;;;;;7.13;2.47;;;1.30;99.90;;;;;;4809047;29;20397;-86
2023/01/26 06:44:11;;;;;;;7.07;2.00;;;0.40;99.90;;;;;;4803273;29;20160;-87
2023/01/26 06:46:43;;;;;;;9.17;2.70;;;0.80;99.90;;;;;;4820208;29;20117;-86
2023/01/26 06:49:15;;;;;;;8.68;2.65;;;0.80;99.90;;;;;;4818076;29;20038;-86
2023/01/26 06:51:58;;;;;;;;;;;-0.50;99.90;;;;;;4818983;29;20492;-86
2023/01/26 06:54:29;;;;;;;8.75;2.45;;;0.30;99.90;;;;;;4822083;29;19912;-87
2023/01/26 06:56:55;;;;;;;6.03;2.33;;;-0.60;99.90;;;;;;4821404;29;20045;-86
2023/01/26 06:59:38;;;;;;;7.97;2.97;;;-0.90;99.90;;;;;;4818261;29;20034;-86
2023/01/26 07:02:11;;;;;;;4.87;1.97;;;-0.10;99.90;;;;;;4818427;29;20178;-86
2023/01/26 07:04:37;;;;;;;9.40;3.00;;;-0.40;99.90;;;;;;4820035;29;20038;-86
2023/01/26 07:07:13;;;;;;;8.53;2.90;;;-0.20;99.90;;;;;;4819356;29;20031;-86
2023/01/26 07:09:42;;;;;;;9.17;3.23;;;1.60;99.90;;;;;;4834046;29;20818;-86
2023/01/26 07:12:08;;;;;;;7.43;2.53;;;0.70;99.90;;;;;;4821496;29;20085;-85
2023/01/26 07:14:39;;;;;;;11.30;3.20;;;0.00;99.90;;;;;;4820153;29;20034;-87
2023/01/26 07:17:05;;;;;;;8.33;2.40;;;0.70;99.90;;;;;;4820156;29;20030;-86
2023/01/26 07:19:32;;;;;;;8.27;2.97;;;-0.50;99.90;;;;;;4819702;29;20042;-86
2023/01/26 07:21:59;;;;;;;7.33;2.63;;;-0.20;99.90;;;;;;4821397;29;20026;-87
2023/01/26 07:24:24;;;;;;;10.77;2.77;;;0.60;99.90;;;;;;4820741;29;20038;-86
2023/01/26 07:26:50;;;;;;;9.93;2.73;;;0.00;99.90;;;;;;4820771;29;20044;-87
2023/01/26 07:29:16;;;;;;;10.37;2.40;;;-0.40;99.90;;;;;;4825078;29;20031;-86
2023/01/26 07:31:43;;;;;;;8.57;2.30;;;-0.20;99.90;;;;;;4815349;29;20686;-86
2023/01/26 07:37:03;;;;;;;10.03;2.20;;;-1.10;99.90;;;;;;4821796;29;20034;-86
2023/01/26 07:39:32;;;;;;;8.50;2.67;;;0.10;99.90;;;;;;4826022;29;20029;-87
2023/01/26 07:41:58;;;;;;;10.77;3.10;;;0.30;99.90;;;;;;4823498;29;20456;-87
2023/01/26 07:44:24;;;;;;;8.33;2.17;;;0.20;99.90;;;;;;4825539;29;20102;-87
2023/01/26 07:46:49;;;;;;;10.33;3.10;;;-0.10;99.90;;;;;;4821379;29;20126;-86
2023/01/26 07:49:15;;;;;;;10.27;2.80;;;-0.10;99.90;;;;;;4816985;29;20030;-87
2023/01/26 07:51:41;;;;;;;7.87;2.53;;;0.40;99.90;;;;;;4824164;29;20078;-87
2023/01/26 07:54:11;;;;;;;10.70;1.97;;;-0.50;99.90;;;;;;4825223;29;20075;-87
2023/01/26 07:56:37;;;;;;;13.57;2.60;;;0.90;99.90;;;;;;4824414;29;20131;-87
2023/01/26 07:59:03;;;;;;;8.80;2.70;;;-0.20;99.90;;;;;;4822622;29;20109;-87
2023/01/26 08:01:29;;;;;;;9.13;2.40;;;0.90;99.90;;;;;;4822917;29;20457;-87
2023/01/26 08:03:55;;;;;;;8.60;2.33;;;-0.50;99.90;;;;;;4818512;29;20034;-87
2023/01/26 08:06:21;;;;;;;8.87;3.20;;;0.90;99.90;;;;;;4820309;29;20611;-86
2023/01/26 08:08:52;;;;;;;9.40;2.57;;;-0.20;99.90;;;;;;4820574;29;20064;-86
2023/01/26 08:11:21;;;;;;;7.90;2.43;;;-0.20;99.90;;;;;;4823559;29;20079;-86
2023/01/26 08:13:47;;;;;;;8.47;2.00;;;-0.20;99.90;;;;;;4821683;29;20480;-86
2023/01/26 08:16:13;;;;;;;6.87;2.43;;;-0.20;99.90;;;;;;4824892;29;20027;-85
2023/01/26 08:18:42;;;;;;;8.27;2.63;;;-0.20;99.90;;;;;;4825393;29;20095;-87
2023/01/26 08:21:08;;;;;;;6.80;2.03;;;-0.20;99.90;;;;;;4826014;29;20030;-87
2023/01/26 08:23:34;;;;;;;8.23;2.10;;;-0.20;99.90;;;;;;4824433;29;20038;-86
2023/01/26 08:26:02;;;;;;;8.07;2.30;;;-0.10;99.90;;;;;;4826365;29;20586;-86
2023/01/26 08:28:28;;;;;;;6.07;1.87;;;0.00;99.90;;;;;;4826390;29;20506;-87
2023/01/26 08:30:53;;;;;;;5.93;2.20;;;0.00;99.90;;;;;;4825993;29;20034;-86
2023/01/26 08:33:19;;;;;;;8.53;1.93;;;0.00;99.90;;;;;;4823499;29;20440;-86
2023/01/26 08:35:44;;;;;;;6.10;2.00;;;0.10;99.90;;;;;;4824585;29;20034;-86
2023/01/26 08:38:10;;;;;;;7.70;2.20;;;0.10;99.90;;;;;;4821733;29;20416;-87
2023/01/26 08:40:36;;;;;;;8.67;2.60;;;0.20;99.90;;;;;;4823181;29;20073;-87
2023/01/26 08:43:02;;;;;;;5.30;1.70;;;0.20;99.90;;;;;;4820669;29;20087;-87
2023/01/26 08:45:28;;;;;;;5.90;2.00;;;0.30;99.90;;;;;;4822017;29;20030;-87
2023/01/26 08:47:54;;;;;;;8.17;2.63;;;0.30;99.90;;;;;;4810036;29;20106;-85
2023/01/26 08:50:19;;;;;;;11.23;2.67;;;0.30;99.90;;;;;;4813467;29;20054;-86
2023/01/26 08:52:45;;;;;;;5.90;2.20;;;0.30;99.90;;;;;;4829132;29;20038;-87
2023/01/26 08:55:11;;;;;;;7.13;2.00;;;0.00;99.90;;;;;;4826405;29;20074;-88
2023/01/26 08:57:39;;;;;;;7.00;3.03;;;0.50;99.90;;;;;;4823278;29;20152;-86
2023/01/26 09:00:06;;;;;;;6.43;2.10;;;0.10;99.90;;;;;;4824356;29;20099;-86
2023/01/26 09:02:31;;;;;;;6.40;2.07;;;0.10;99.90;;;;;;4819350;29;20082;-87
2023/01/26 09:04:59;;;;;;;4.70;1.90;;;0.10;99.90;;;;;;4824842;29;20109;-86
2023/01/26 09:07:25;;;;;;;4.93;1.87;;;0.00;99.90;;;;;;4807046;29;20038;-86
2023/01/26 09:09:50;;;;;;;6.60;2.10;;;0.00;99.90;;;;;;4806181;29;20042;-86
2023/01/26 09:12:16;;;;;;;7.60;2.00;;;0.00;99.90;;;;;;4821239;29;20023;-86
2023/01/26 09:14:42;;;;;;;6.00;1.37;;;-0.10;99.90;;;;;;4811781;29;20670;-86
2023/01/26 09:17:08;;;;;;;6.10;1.93;;;1.40;99.90;;;;;;4823739;29;20038;-86
2023/01/26 09:19:39;;;;;;;8.27;2.37;;;-0.10;99.90;;;;;;4823567;29;20033;-86
2023/01/26 09:22:05;;;;;;;7.67;1.87;;;1.20;99.90;;;;;;4822704;29;20032;-86
2023/01/26 09:24:35;;;;;;;7.70;2.47;;;-0.40;99.90;;;;;;4820025;29;20463;-86
2023/01/26 09:27:05;;;;;;;10.03;2.57;;;-0.30;99.90;;;;;;4821785;29;20050;-86
2023/01/26 09:29:33;;;;;;;12.20;2.60;;;1.50;99.90;;;;;;4822391;29;20023;-87
2023/01/26 09:31:59;;;;;;;6.23;1.50;;;0.50;99.90;;;;;;4822456;29;20030;-86
2023/01/26 10:08:48;;;;;;;;;;;;;;;;;;;;;
2023/01/26 10:32:11;;;;;;;5.73;1.70;;;0.40;99.90;;;;;;4748653;30;20063;-89
2023/01/26 10:35:03;;;;;;;7.33;1.83;;;-0.10;99.90;;;;;;4744246;30;20039;-88
2023/01/26 10:38:01;;;;;;;6.40;1.77;;;1.20;99.90;;;;;;4760402;30;20079;-89
2023/01/26 10:41:15;;;;;;;6.73;2.07;;;0.40;99.90;;;;;;4766700;30;20031;-89
2023/01/26 10:44:26;;;;;;;5.93;1.87;;;0.40;99.90;;;;;;4752898;30;20036;-89
2023/01/26 10:51:12;;;;;;;4.37;1.30;;;-0.20;99.90;;;;;;4746086;30;20048;-88
2023/01/26 10:58:01;;;;;;;;;;;;;;;;;;;;;
2023/01/26 11:12:36;;;;;;;;;;;;;;;;;;;;;
2023/01/26 11:27:03;;;;;;;4.13;1.43;;;-0.10;99.90;;;;;;4753864;29;20039;-88
2023/01/26 11:30:16;;;;;;;4.47;1.50;;;-1.00;99.90;;;;;;4781045;29;20055;-89
2023/01/26 11:33:47;;;;;;;8.30;2.33;;;0.10;99.90;;;;;;4817122;29;20096;-89
2023/01/26 12:12:44;;;;;;;7.30;1.70;;;-0.30;99.90;;;;;;4764361;30;20048;-90
2023/01/26 12:16:28;;;;;;;;;;;;;;;;;;;;;
2023/01/26 12:19:40;;;;;;;8.63;2.13;;;0.80;99.90;;;;;;4775081;29;20655;-90
2023/01/26 12:30:22;;;;;;;4.73;1.50;;;0.30;99.90;;;;;;4745496;30;20044;-89
2023/01/26 12:33:56;;;;;;;;;;;;;;;;;;;;;
2023/01/26 12:37:29;;;;;;;6.03;2.27;;;0.60;99.90;;;;;;4731102;30;20114;-89
2023/01/26 12:40:39;;;;;;;5.47;2.03;;;0.10;99.90;;;;;;4727779;30;20556;-90
2023/01/26 12:49:07;;;;;;;;;;;;;;;;;;;;;
2023/01/26 12:52:09;;;;;;;6.33;1.73;;;0.10;99.90;;;;;;4846794;29;20032;-88
2023/01/26 12:54:52;;;;;;;5.13;1.53;;;0.00;99.90;;;;;;4846179;29;20094;-87
2023/01/26 12:57:56;;;;;;;5.67;1.23;;;0.00;99.90;;;;;;4850337;29;20044;-87
2023/01/26 13:01:03;;;;;;;5.20;1.90;;;0.30;99.90;;;;;;4851550;29;20444;-87
2023/01/26 13:04:18;;;;;;;7.90;2.63;;;-0.20;99.90;;;;;;4848885;29;20566;-87
2023/01/26 13:07:20;;;;;;;9.43;2.10;;;0.00;99.90;;;;;;4851349;29;20034;-87
2023/01/26 13:10:16;;;;;;;9.47;2.60;;;1.10;99.90;;;;;;4848636;29;20124;-87
2023/01/26 13:19:49;;;;;;;8.13;2.60;;;0.80;99.90;;;;;;4843682;29;20034;-87
2023/01/26 13:22:29;;;;;;;9.27;2.43;;;0.20;99.90;;;;;;4827892;29;20046;-87
2023/01/26 13:25:30;;;;;;;6.87;2.73;;;0.30;99.90;;;;;;4844323;29;20283;-87
2023/01/26 13:28:09;;;;;;;7.70;2.57;;;1.20;99.90;;;;;;4858191;29;20041;-88
2023/01/26 13:31:27;;;;;;;10.33;2.60;;;1.10;99.90;;;;;;4835367;29;20128;-87
2023/01/26 13:34:42;;;;;;;7.07;2.90;;;0.20;99.90;;;;;;4841985;29;20059;-88
2023/01/26 13:37:17;;;;;;;8.17;2.87;;;0.10;99.90;;;;;;4822815;29;20031;-88
2023/01/26 13:47:08;;;;;;;9.97;3.13;;;0.00;99.90;;;;;;4848768;29;20568;-89
2023/01/26 13:49:52;;;;;;;;;;;;;;;;;;;;;
2023/01/26 13:52:59;;;;;;;13.70;3.50;;;1.20;99.90;;;;;;4840723;29;20121;-89
2023/01/26 13:56:23;;;;;;;12.80;3.60;;;-0.20;99.90;;;;;;4828343;29;20034;-88
2023/01/26 14:00:02;;;;;;;;;;;;;;;;;;;;;
2023/01/26 14:06:36;;;;;;;10.00;2.63;;;1.20;99.90;;;;;;4817044;29;20042;-88
2023/01/26 14:09:41;;;;;;;8.80;2.67;;;1.10;99.90;;;;;;4789883;29;20034;-88
2023/01/26 14:15:41;;;;;;;9.37;2.93;;;0.60;99.90;;;;;;4852170;29;20092;-88
2023/01/26 14:18:40;;;;;;;6.63;3.33;;;0.10;99.90;;;;;;4847650;29;20038;-88
2023/01/26 14:21:43;;;;;;;10.10;3.13;;;1.00;99.90;;;;;;4847375;29;20052;-88
2023/01/26 14:24:15;;;;;;;10.10;3.67;;;-0.20;99.90;;;;;;4849370;29;20029;-88
2023/01/26 14:26:56;;;;;;;11.20;3.58;;;0.70;99.90;;;;;;4853831;29;20173;-87
2023/01/26 14:30:11;;;;;;;;;;;;;;;;;;;;;
2023/01/26 14:32:42;;;;;;;12.87;3.17;;;0.20;99.90;;;;;;4843032;29;20129;-87
2023/01/26 14:35:53;;;;;;;7.57;3.17;;;1.50;99.90;;;;;;4849352;29;20038;-88
2023/01/26 14:38:27;;;;;;;12.63;2.83;;;1.10;99.90;;;;;;4831490;29;20688;-88
2023/01/26 14:44:16;;;;;;;10.10;3.03;;;0.10;99.90;;;;;;4844514;29;20040;-88
2023/01/26 14:47:00;;;;;;;9.87;3.27;;;-0.80;99.90;;;;;;4842322;29;20140;-88
2023/01/26 14:49:41;;;;;;;11.60;3.10;;;0.00;99.90;;;;;;4858635;29;20038;-88
2023/01/26 14:52:37;;;;;;;10.27;2.33;;;-0.20;99.90;;;;;;4842924;29;20079;-90
2023/01/26 14:55:41;;;;;;;9.23;2.80;;;0.20;99.90;;;;;;4847753;29;20121;-90
2023/01/26 14:58:48;;;;;;;14.70;3.13;;;0.20;99.90;;;;;;4855216;29;20031;-91
2023/01/26 15:01:59;;;;;;;;;;;;;;;;;;;;;
2023/01/26 15:08:58;;;;;;;16.63;3.80;;;-0.20;99.90;;;;;;4833823;29;20030;-91
2023/01/26 15:15:39;;;;;;;14.20;2.90;;;-0.50;99.90;;;;;;4831247;29;20106;-91
2023/01/26 15:18:40;;;;;;;7.57;2.53;;;-0.40;99.90;;;;;;4826749;29;20556;-91
2023/01/26 16:04:24;;;;;;;7.68;2.03;;;0.30;99.90;;;;;;4818459;29;20047;-91
2023/01/26 16:07:14;;;;;;;11.27;2.70;;;-0.40;99.90;;;;;;4827950;29;20037;-90
2023/01/26 16:09:50;;;;;;;8.23;3.10;;;-0.30;99.90;;;;;;4824131;29;20043;-90
2023/01/26 16:12:55;;;;;;;12.53;3.60;;;-0.60;99.90;;;;;;4811988;29;20095;-91
2023/01/26 16:19:20;;;;;;;;;;;;;;;;;;;;;
2023/01/26 17:07:25;;;;;;;13.30;4.40;;;0.10;99.90;;;;;;2356841;23;20315;-88
2023/01/26 17:10:51;;;;;;;8.57;2.20;;;0.10;99.90;;;;;;4813911;29;20047;-91
2023/01/26 17:14:08;;;;;;;;;;;;;;;;;;;;;
2023/01/26 17:16:59;;;;;;;8.83;2.60;;;-0.20;99.90;;;;;;4795452;29;20505;-91
2023/01/26 17:19:42;;;;;;;8.03;2.97;;;0.10;99.90;;;;;;4795694;29;20038;-89
2023/01/26 17:22:19;;;;;;;9.10;3.03;;;0.90;99.90;;;;;;4798127;29;20707;-91
2023/01/26 17:25:22;;;;;;;10.57;2.60;;;0.50;99.90;;;;;;4810770;29;20044;-91
2023/01/26 17:28:36;;;;;;;24.13;6.30;;;0.40;99.90;;;;;;4791842;29;20039;-91
2023/01/26 17:34:56;;;;;;;18.17;4.93;;;1.40;99.90;;;;;;4794616;29;20031;-91
2023/01/26 17:37:36;;;;;;;26.60;5.43;;;0.60;99.90;;;;;;4780299;30;20047;-91
2023/01/26 17:40:12;;;;;;;13.87;4.43;;;1.00;99.90;;;;;;4768871;30;20039;-91
2023/01/26 17:42:52;;;;;;;11.97;3.63;;;-1.10;99.90;;;;;;4785115;29;20526;-91
2023/01/26 17:45:22;;;;;;;11.33;3.83;;;1.00;99.90;;;;;;4803615;29;20527;-90
2023/01/26 17:47:49;;;;;;;8.93;3.30;;;-0.10;99.90;;;;;;4794615;29;20027;-91
2023/01/26 17:50:36;;;;;;;8.63;3.03;;;1.60;99.90;;;;;;4799404;29;20500;-90
2023/01/26 17:53:23;;;;;;;11.37;2.53;;;1.60;99.90;;;;;;4793741;29;20027;-90
2023/01/26 17:55:54;;;;;;;10.97;3.27;;;0.20;99.90;;;;;;4787544;29;20039;-90
2023/01/26 17:58:39;;;;;;;8.20;2.38;;;-0.60;99.90;;;;;;4793370;29;20031;-90
2023/01/26 18:01:13;;;;;;;9.90;2.90;;;-0.20;99.90;;;;;;4803403;29;20039;-91
2023/01/26 18:03:50;;;;;;;9.77;2.50;;;0.80;99.90;;;;;;4815519;29;20055;-90
2023/01/26 18:06:20;;;;;;;7.33;3.07;;;-0.10;99.90;;;;;;4798827;29;20484;-90
2023/01/26 18:08:54;;;;;;;7.03;2.43;;;0.10;99.90;;;;;;4794509;29;20051;-90
2023/01/26 18:11:35;;;;;;;11.73;2.83;;;0.80;99.90;;;;;;4820922;29;20083;-90
2023/01/26 18:14:09;;;;;;;6.67;2.50;;;-0.30;99.90;;;;;;4796511;29;20423;-90
2023/01/26 18:19:57;;;;;;;7.60;2.53;;;-0.30;99.90;;;;;;4789000;29;20039;-89
2023/01/26 18:22:30;;;;;;;7.13;2.67;;;0.80;99.90;;;;;;4802192;29;20110;-90
2023/01/26 18:32:42;;;;;;;;;;;;;;;;;;;;;
2023/01/26 18:35:32;;;;;;;7.53;2.23;;;-1.50;99.90;;;;;;4797151;29;20092;-90
2023/01/26 18:38:23;;;;;;;6.70;1.73;;;0.00;99.90;;;;;;4798890;29;20024;-91
2023/01/26 18:41:24;;;;;;;6.93;1.77;;;-0.40;99.90;;;;;;4794126;29;20031;-90
2023/01/26 18:44:08;;;;;;;5.00;2.03;;;-0.40;99.90;;;;;;4809116;29;20047;-90
2023/01/26 18:47:31;;;;;;;8.00;2.20;;;0.40;99.90;;;;;;4793600;29;20027;-90
2023/01/26 18:50:20;;;;;;;7.40;2.00;;;0.40;99.90;;;;;;4804504;29;20035;-91
2023/01/26 21:15:47;;;;;;;;;;;;;;;;;;;;;
2023/01/26 21:22:24;;;;;;;6.30;2.27;;;-1.20;99.90;;;;;;4814456;29;20046;-88
2023/01/26 21:25:21;;;;;;;8.30;3.10;;;-1.30;99.90;;;;;;4837079;29;20042;-89
2023/01/26 21:27:56;;;;;;;9.63;2.67;;;-0.70;99.90;;;;;;4840353;29;20058;-89
2023/01/26 21:30:58;;;;;;;8.67;3.47;;;-1.00;99.90;;;;;;4832995;29;20038;-89
2023/01/26 21:33:30;;;;;;;8.90;3.30;;;-1.50;99.90;;;;;;4842807;29;20274;-89
2023/01/26 21:36:10;;;;;;;9.30;3.37;;;-1.10;99.90;;;;;;4840114;29;20032;-90
2023/01/26 21:39:11;;;;;;;12.33;3.10;;;-1.50;99.90;;;;;;4843088;29;20029;-89
2023/01/26 21:48:26;;;;;;;5.60;2.30;;;-1.10;99.90;;;;;;4846259;29;20036;-88
2023/01/26 21:52:56;;;;;;;12.73;2.67;;;-1.10;99.90;;;;;;4840848;29;20046;-88
2023/01/26 21:53:23;;;;;;;7.60;2.50;;;-0.40;99.90;;;;;;4846446;29;20025;-89
2023/01/26 21:59:07;;;;;;;8.53;3.00;;;-1.20;99.90;;;;;;4835326;29;20061;-89
2023/01/26 22:02:10;;;;;;;;;;;;;;;;;;;;;
2023/01/26 22:04:45;;;;;;;9.23;3.27;;;-0.60;99.90;;;;;;4844237;29;20113;-90
2023/01/26 22:07:33;;;;;;;7.70;2.63;;;-0.80;99.90;;;;;;4842004;29;20049;-89
2023/01/26 22:10:16;;;;;;;9.60;3.03;;;-0.80;99.90;;;;;;4845671;29;20116;-89
2023/01/26 22:12:58;;;;;;;10.97;3.23;;;-1.40;99.90;;;;;;4844023;29;20037;-89